Time;durP1;ratioP1;P1;durP2;ratioP2;P2;SDS_P1;SDS_P2;PMS_P1;PMS_P2;Temp;Humidity;BMP_temperature;BMP_pressure;BME280_temperature;BME280_humidity;BME280_pressure;Samples;Min_cycle;Max_cycle;Signal;HPM_P1;HPM_P2
2021/05/05 00:01:03;;;;;;;12.68;2.78;;;6.70;97.50;;;;;;5135406;27;20035;-71
2021/05/05 00:03:28;;;;;;;8.18;2.47;;;6.70;97.30;;;;;;5134460;27;20110;-71
2021/05/05 00:05:56;;;;;;;11.23;2.75;;;6.80;97.40;;;;;;5134924;27;20031;-71
2021/05/05 00:08:23;;;;;;;15.65;2.08;;;6.70;97.50;;;;;;5135033;27;20501;-71
2021/05/05 00:10:50;;;;;;;8.23;1.67;;;6.80;97.00;;;;;;5135021;27;20035;-71
2021/05/05 00:13:16;;;;;;;12.90;2.33;;;6.70;96.70;;;;;;5135269;27;20027;-71
2021/05/05 00:15:42;;;;;;;16.90;3.33;;;6.70;96.90;;;;;;5134958;27;20031;-71
2021/05/05 00:18:08;;;;;;;13.27;3.03;;;6.60;96.70;;;;;;5134937;27;20050;-71
2021/05/05 00:20:33;;;;;;;10.02;2.25;;;6.60;96.90;;;;;;5135263;27;20035;-71
2021/05/05 00:22:59;;;;;;;11.20;3.13;;;6.60;96.90;;;;;;5135037;27;20081;-71
2021/05/05 00:25:26;;;;;;;13.77;2.53;;;6.60;97.00;;;;;;5134595;27;20091;-71
2021/05/05 00:27:52;;;;;;;13.82;2.53;;;6.60;96.90;;;;;;5134839;27;20463;-71
2021/05/05 00:30:20;;;;;;;8.90;2.20;;;6.60;97.20;;;;;;5135089;27;20039;-71
2021/05/05 00:32:46;;;;;;;9.02;1.80;;;6.60;97.20;;;;;;5133900;27;20031;-71
2021/05/05 00:35:13;;;;;;;9.05;2.67;;;6.60;97.30;;;;;;5134812;27;20471;-71
2021/05/05 00:37:39;;;;;;;18.25;2.50;;;6.80;96.90;;;;;;5134480;27;20065;-71
2021/05/05 00:40:06;;;;;;;14.07;2.85;;;6.70;97.00;;;;;;5134699;27;20072;-71
2021/05/05 00:42:32;;;;;;;11.95;2.25;;;6.70;96.80;;;;;;5135021;27;20039;-71
2021/05/05 00:45:00;;;;;;;13.10;2.58;;;6.70;96.80;;;;;;5134633;27;20375;-71
2021/05/05 00:47:26;;;;;;;12.10;1.98;;;6.60;96.80;;;;;;5134614;27;20039;-71
2021/05/05 00:49:53;;;;;;;7.90;2.50;;;6.70;96.70;;;;;;5135114;27;20505;-71
2021/05/05 00:52:20;;;;;;;13.43;2.97;;;6.70;96.90;;;;;;5134491;27;20494;-71
2021/05/05 00:54:46;;;;;;;12.57;2.75;;;6.70;96.90;;;;;;5134468;27;20172;-71
2021/05/05 00:57:12;;;;;;;17.90;3.20;;;6.70;97.00;;;;;;5134450;27;20427;-71
2021/05/05 00:59:38;;;;;;;14.98;4.22;;;6.70;96.70;;;;;;5134556;27;20043;-71
2021/05/05 01:02:04;;;;;;;14.45;2.63;;;6.70;96.90;;;;;;5134574;27;20494;-71
2021/05/05 01:04:30;;;;;;;12.25;2.35;;;6.80;96.90;;;;;;5134107;27;20584;-71
2021/05/05 01:06:55;;;;;;;12.68;2.28;;;6.70;96.80;;;;;;5135020;27;20047;-71
2021/05/05 01:09:43;;;;;;;11.25;2.20;;;6.70;96.70;;;;;;5134348;27;20124;-71
2021/05/05 01:12:13;;;;;;;8.57;1.77;;;6.80;96.60;;;;;;5134394;28;20046;-71
2021/05/05 01:14:40;;;;;;;9.10;2.65;;;6.70;96.70;;;;;;5134152;27;20394;-71
2021/05/05 01:17:06;;;;;;;16.92;3.22;;;6.70;96.70;;;;;;5134054;27;20035;-71
2021/05/05 01:19:32;;;;;;;12.07;3.28;;;6.70;96.90;;;;;;5134121;27;20042;-71
2021/05/05 01:21:59;;;;;;;15.63;3.85;;;6.70;96.50;;;;;;5134378;28;20042;-71
2021/05/05 01:24:24;;;;;;;13.85;3.03;;;6.70;96.80;;;;;;5133981;27;20039;-72
2021/05/05 01:26:50;;;;;;;15.38;3.78;;;6.70;96.60;;;;;;5134091;27;20437;-71
2021/05/05 01:29:16;;;;;;;22.10;3.88;;;6.60;96.70;;;;;;5134688;27;20372;-71
2021/05/05 01:31:42;;;;;;;11.52;4.47;;;6.70;96.80;;;;;;5134697;27;20036;-71
2021/05/05 01:34:08;;;;;;;12.77;3.35;;;6.70;96.70;;;;;;5134632;27;20042;-71
2021/05/05 01:36:36;;;;;;;20.25;3.95;;;6.70;96.90;;;;;;5132453;28;20039;-71
2021/05/05 01:39:07;;;;;;;14.25;2.72;;;6.60;96.80;;;;;;5134581;27;20039;-71
2021/05/05 01:41:34;;;;;;;13.18;3.03;;;6.60;96.90;;;;;;5134385;27;20039;-71
2021/05/05 01:44:00;;;;;;;16.65;3.22;;;6.60;96.80;;;;;;5133837;27;20404;-71
2021/05/05 01:46:27;;;;;;;16.35;4.05;;;6.60;96.80;;;;;;5133657;27;20035;-71
2021/05/05 01:48:52;;;;;;;14.32;2.75;;;6.60;96.70;;;;;;5133775;27;20090;-71
2021/05/05 01:51:18;;;;;;;14.15;2.78;;;6.60;96.60;;;;;;5133890;27;20471;-71
2021/05/05 01:53:44;;;;;;;15.15;2.55;;;6.60;96.50;;;;;;5133917;27;20035;-71
2021/05/05 01:56:11;;;;;;;10.15;2.53;;;6.60;96.80;;;;;;5133867;27;20414;-71
2021/05/05 01:58:37;;;;;;;11.07;2.17;;;6.60;96.90;;;;;;5133973;27;20138;-71
2021/05/05 02:01:03;;;;;;;11.48;2.72;;;6.60;96.70;;;;;;5133877;27;20535;-71
2021/05/05 02:03:29;;;;;;;8.85;2.20;;;6.70;96.30;;;;;;5133712;27;20091;-71
2021/05/05 02:05:55;;;;;;;21.63;3.05;;;6.60;96.30;;;;;;5133561;27;20383;-71
2021/05/05 02:08:21;;;;;;;10.98;2.42;;;6.60;96.20;;;;;;5133870;27;20040;-71
2021/05/05 02:10:47;;;;;;;17.65;3.42;;;6.70;96.10;;;;;;5133770;27;20042;-71
2021/05/05 02:13:13;;;;;;;9.65;2.45;;;6.60;96.10;;;;;;5133658;27;20039;-71
2021/05/05 02:15:40;;;;;;;16.23;3.67;;;6.60;96.20;;;;;;5134875;27;20428;-71
2021/05/05 02:18:06;;;;;;;7.00;2.20;;;6.70;96.30;;;;;;5137314;27;20158;-71
2021/05/05 02:20:33;;;;;;;9.88;2.75;;;6.70;96.00;;;;;;5137374;27;20110;-71
2021/05/05 02:22:58;;;;;;;12.32;2.67;;;6.60;96.10;;;;;;5137634;27;20082;-71
2021/05/05 02:25:24;;;;;;;9.90;1.90;;;6.60;95.60;;;;;;5136902;27;20475;-71
2021/05/05 02:27:51;;;;;;;12.80;2.67;;;6.60;95.60;;;;;;5137093;27;20096;-71
2021/05/05 02:30:21;;;;;;;8.35;2.33;;;6.60;95.80;;;;;;5137731;27;20035;-71
2021/05/05 02:32:48;;;;;;;13.15;2.55;;;6.60;95.60;;;;;;5137056;27;20039;-71
2021/05/05 02:35:14;;;;;;;10.88;2.33;;;6.50;95.60;;;;;;5137014;27;20130;-71
2021/05/05 02:37:40;;;;;;;11.63;2.50;;;6.40;95.90;;;;;;5135733;27;20035;-71
2021/05/05 02:40:08;;;;;;;10.77;2.47;;;6.50;95.80;;;;;;5137601;27;20121;-71
2021/05/05 02:42:34;;;;;;;11.45;2.60;;;6.50;95.70;;;;;;5137093;27;20106;-71
2021/05/05 02:45:00;;;;;;;14.55;4.05;;;6.50;95.90;;;;;;5137032;27;20059;-71
2021/05/05 02:47:27;;;;;;;10.75;2.72;;;6.50;95.80;;;;;;5136914;27;20063;-71
2021/05/05 02:49:52;;;;;;;13.48;2.30;;;6.50;96.00;;;;;;5136967;27;20039;-71
2021/05/05 02:52:18;;;;;;;15.43;3.78;;;6.50;96.10;;;;;;5137354;27;20045;-71
2021/05/05 02:54:45;;;;;;;18.42;3.45;;;6.60;96.00;;;;;;5135521;27;20027;-71
2021/05/05 02:57:11;;;;;;;11.60;2.80;;;6.60;95.90;;;;;;5136493;27;20498;-71
2021/05/05 02:59:37;;;;;;;13.07;3.05;;;6.60;95.10;;;;;;5136586;27;20080;-71
2021/05/05 03:02:03;;;;;;;20.73;2.63;;;6.60;94.90;;;;;;5137096;27;20042;-71
2021/05/05 03:04:29;;;;;;;12.15;2.50;;;6.50;95.20;;;;;;5136399;27;20467;-72
2021/05/05 03:06:55;;;;;;;12.48;2.50;;;6.50;95.40;;;;;;5136211;27;20390;-71
2021/05/05 03:09:26;;;;;;;8.50;2.67;;;6.40;95.30;;;;;;5135359;27;20038;-71
2021/05/05 03:12:01;;;;;;;9.15;2.55;;;6.40;95.60;;;;;;5136571;27;20042;-71
2021/05/05 03:14:28;;;;;;;13.80;3.35;;;6.30;95.90;;;;;;5136424;27;20372;-71
2021/05/05 03:16:55;;;;;;;10.80;2.75;;;6.30;96.30;;;;;;5136682;27;20035;-71
2021/05/05 03:19:21;;;;;;;9.55;2.38;;;6.30;96.20;;;;;;5136385;27;20164;-71
2021/05/05 03:21:47;;;;;;;14.18;2.78;;;6.30;96.30;;;;;;5136140;27;20069;-71
2021/05/05 03:24:12;;;;;;;16.23;2.65;;;6.30;96.40;;;;;;5136720;27;20039;-71
2021/05/05 03:26:38;;;;;;;14.55;3.10;;;6.30;95.80;;;;;;5135725;27;20049;-71
2021/05/05 03:29:04;;;;;;;11.05;3.78;;;6.40;96.10;;;;;;5136461;27;20035;-71
2021/05/05 03:31:32;;;;;;;17.08;3.33;;;6.40;96.00;;;;;;5135961;27;20380;-71
2021/05/05 03:33:58;;;;;;;14.48;2.85;;;6.40;96.00;;;;;;5135821;27;20035;-71
2021/05/05 03:36:24;;;;;;;15.60;3.45;;;6.40;95.90;;;;;;5135902;27;20080;-71
2021/05/05 03:38:50;;;;;;;8.20;2.85;;;6.40;96.20;;;;;;5134646;27;20111;-71
2021/05/05 03:41:15;;;;;;;14.95;3.00;;;6.50;96.00;;;;;;5135907;27;20475;-71
2021/05/05 03:43:41;;;;;;;5.88;1.90;;;6.40;96.40;;;;;;5135779;27;20467;-71
2021/05/05 03:46:10;;;;;;;10.18;1.50;;;6.30;96.20;;;;;;5135313;27;20110;-71
2021/05/05 03:48:36;;;;;;;10.68;2.53;;;6.20;96.10;;;;;;5135961;27;20456;-71
2021/05/05 03:51:03;;;;;;;9.48;2.22;;;6.10;96.60;;;;;;5135639;27;20391;-71
2021/05/05 03:53:30;;;;;;;6.82;2.05;;;6.10;96.90;;;;;;5136168;27;20038;-71
2021/05/05 03:55:55;;;;;;;8.80;2.25;;;6.00;97.20;;;;;;5135067;27;20427;-71
2021/05/05 03:58:21;;;;;;;10.40;1.67;;;6.00;97.40;;;;;;5135577;27;20070;-71
2021/05/05 04:00:47;;;;;;;15.10;2.72;;;6.00;97.40;;;;;;5135678;27;20058;-71
2021/05/05 04:03:12;;;;;;;9.48;2.88;;;6.00;97.50;;;;;;5135901;27;20039;-71
2021/05/05 04:05:38;;;;;;;11.70;3.28;;;6.00;97.50;;;;;;5133768;27;20039;-71
2021/05/05 04:08:04;;;;;;;13.15;2.88;;;6.10;97.70;;;;;;5135226;27;20501;-71
2021/05/05 04:10:30;;;;;;;8.93;2.15;;;6.10;97.10;;;;;;5135816;27;20039;-71
2021/05/05 04:12:55;;;;;;;11.35;2.55;;;6.10;97.00;;;;;;5135052;27;20031;-71
2021/05/05 04:15:21;;;;;;;6.75;2.08;;;6.00;97.00;;;;;;5135129;27;20035;-70
2021/05/05 04:17:47;;;;;;;6.07;1.52;;;6.00;96.90;;;;;;5134936;27;20113;-71
2021/05/05 04:20:16;;;;;;;10.80;2.47;;;6.00;96.70;;;;;;5135199;27;20039;-71
2021/05/05 04:22:42;;;;;;;9.70;2.72;;;6.00;96.80;;;;;;5134827;27;20099;-71
2021/05/05 04:25:08;;;;;;;12.65;3.40;;;6.00;97.10;;;;;;5134682;27;20471;-71
2021/05/05 04:27:34;;;;;;;12.27;2.50;;;6.00;97.20;;;;;;5134679;27;20491;-71
2021/05/05 04:30:00;;;;;;;11.30;2.90;;;6.00;97.60;;;;;;5133982;27;20050;-71
2021/05/05 04:32:26;;;;;;;18.08;3.08;;;6.00;97.60;;;;;;5135273;27;20408;-71
2021/05/05 04:34:52;;;;;;;16.13;3.42;;;6.00;98.10;;;;;;5134665;27;20034;-71
2021/05/05 04:37:18;;;;;;;16.38;2.92;;;6.10;98.20;;;;;;5134496;27;20471;-71
2021/05/05 04:39:43;;;;;;;22.13;3.70;;;6.10;98.20;;;;;;5134520;27;20066;-71
2021/05/05 04:42:11;;;;;;;17.50;3.65;;;6.20;98.00;;;;;;5134591;27;20042;-71
2021/05/05 04:44:37;;;;;;;14.38;3.38;;;6.20;98.20;;;;;;5134531;27;20066;-72
2021/05/05 04:47:04;;;;;;;17.02;4.20;;;6.30;98.00;;;;;;5134416;27;20042;-71
2021/05/05 04:49:30;;;;;;;15.30;3.55;;;6.30;98.20;;;;;;5135170;27;20039;-71
2021/05/05 04:51:55;;;;;;;17.63;3.88;;;6.30;98.30;;;;;;5134479;27;20073;-71
2021/05/05 04:54:21;;;;;;;22.38;4.05;;;6.30;98.10;;;;;;5134497;27;20064;-72
2021/05/05 04:56:47;;;;;;;20.67;4.00;;;6.30;98.10;;;;;;5134116;27;20031;-71
2021/05/05 04:59:13;;;;;;;17.75;4.53;;;6.30;98.10;;;;;;5134395;27;20039;-71
2021/05/05 05:01:38;;;;;;;16.58;4.25;;;6.40;98.10;;;;;;5134518;27;20043;-71
2021/05/05 05:04:04;;;;;;;11.68;3.78;;;6.40;97.80;;;;;;5134324;27;20042;-71
2021/05/05 05:06:30;;;;;;;19.45;4.40;;;6.40;97.80;;;;;;5134128;27;20498;-71
2021/05/05 05:08:56;;;;;;;16.33;3.95;;;6.40;97.80;;;;;;5134175;27;20453;-71
2021/05/05 05:11:21;;;;;;;17.15;4.07;;;6.40;98.00;;;;;;5134374;27;20404;-71
2021/05/05 05:13:47;;;;;;;18.15;3.80;;;6.40;97.70;;;;;;5134308;27;20037;-71
2021/05/05 05:16:13;;;;;;;12.43;2.70;;;6.40;97.10;;;;;;5134099;27;20035;-71
2021/05/05 05:18:39;;;;;;;7.45;2.53;;;6.40;96.70;;;;;;5134746;27;20379;-71
2021/05/05 05:21:06;;;;;;;13.02;2.25;;;6.40;96.70;;;;;;5134657;27;20028;-71
2021/05/05 05:23:32;;;;;;;11.75;1.92;;;6.40;96.80;;;;;;5134027;27;20070;-71
2021/05/05 05:25:59;;;;;;;4.82;1.70;;;6.30;97.10;;;;;;5133626;27;20088;-71
2021/05/05 05:28:26;;;;;;;12.50;2.33;;;6.30;96.60;;;;;;5134341;27;20482;-71
2021/05/05 05:30:52;;;;;;;13.30;2.97;;;6.30;96.40;;;;;;5134724;27;20134;-71
2021/05/05 05:33:19;;;;;;;18.52;2.70;;;6.40;96.20;;;;;;5133920;27;20118;-71
2021/05/05 05:35:44;;;;;;;13.80;2.97;;;6.40;96.00;;;;;;5133589;27;20470;-71
2021/05/05 05:38:11;;;;;;;16.83;4.00;;;6.40;96.30;;;;;;5134414;27;20040;-71
2021/05/05 05:40:36;;;;;;;16.75;2.80;;;6.50;96.40;;;;;;5134242;27;20417;-71
2021/05/05 05:43:03;;;;;;;15.48;3.95;;;6.50;96.50;;;;;;5134193;28;20039;-71
2021/05/05 05:45:29;;;;;;;11.10;2.80;;;6.50;96.30;;;;;;5133555;27;20036;-71
2021/05/05 05:47:54;;;;;;;14.73;2.92;;;6.60;96.40;;;;;;5134486;27;20468;-71
2021/05/05 05:50:21;;;;;;;11.43;2.90;;;6.70;96.60;;;;;;5135441;27;20050;-71
2021/05/05 05:52:46;;;;;;;15.98;4.93;;;6.80;96.40;;;;;;5137931;27;20130;-71
2021/05/05 05:55:15;;;;;;;20.80;3.65;;;6.80;96.50;;;;;;5137702;27;20443;-71
2021/05/05 05:57:43;;;;;;;21.17;4.53;;;6.80;96.70;;;;;;5138106;27;20059;-71
2021/05/05 06:00:13;;;;;;;17.92;3.45;;;7.00;96.10;;;;;;5138077;27;20483;-71
2021/05/05 06:02:40;;;;;;;12.75;3.00;;;7.10;96.30;;;;;;5138343;27;20046;-71
2021/05/05 06:05:06;;;;;;;16.15;3.83;;;7.10;96.30;;;;;;5137810;27;20114;-71
2021/05/05 06:07:32;;;;;;;8.98;2.35;;;7.20;96.20;;;;;;5137550;27;20039;-71
2021/05/05 06:09:58;;;;;;;21.60;4.10;;;7.30;95.70;;;;;;5137872;27;20548;-71
2021/05/05 06:12:24;;;;;;;13.32;3.63;;;7.30;95.80;;;;;;5136501;27;20071;-71
2021/05/05 06:14:49;;;;;;;13.52;3.28;;;7.40;95.70;;;;;;5137521;27;20403;-71
2021/05/05 06:17:15;;;;;;;15.98;3.45;;;7.40;95.40;;;;;;5137508;27;20084;-71
2021/05/05 06:19:41;;;;;;;13.95;3.30;;;7.40;94.90;;;;;;5138021;27;20468;-71
2021/05/05 06:22:06;;;;;;;10.15;2.85;;;7.40;95.00;;;;;;5137330;27;20470;-71
2021/05/05 06:24:32;;;;;;;18.67;4.25;;;7.50;95.30;;;;;;5137357;27;20119;-72
2021/05/05 06:26:58;;;;;;;16.20;2.95;;;7.50;95.30;;;;;;5137565;27;20031;-71
2021/05/05 06:29:24;;;;;;;16.25;2.88;;;7.50;95.40;;;;;;5137871;27;20035;-71
2021/05/05 06:31:50;;;;;;;21.73;3.42;;;7.50;95.30;;;;;;5137567;27;20035;-71
2021/05/05 06:34:16;;;;;;;12.35;2.60;;;7.60;95.50;;;;;;5137515;27;20505;-72
2021/05/05 06:36:42;;;;;;;12.55;2.53;;;7.50;94.60;;;;;;5137173;27;20039;-71
2021/05/05 06:39:08;;;;;;;22.85;3.63;;;7.60;94.70;;;;;;5137788;27;20047;-71
2021/05/05 06:41:36;;;;;;;15.75;2.45;;;7.60;94.90;;;;;;5137909;27;20475;-69
2021/05/05 06:44:02;;;;;;;15.32;3.40;;;7.60;95.30;;;;;;5137775;27;20458;-69
2021/05/05 06:46:30;;;;;;;15.38;3.47;;;7.70;94.70;;;;;;5137737;27;20490;-70
2021/05/05 06:48:59;;;;;;;14.38;3.20;;;7.60;95.00;;;;;;5136998;27;20466;-70
2021/05/05 06:51:26;;;;;;;21.10;3.10;;;7.60;95.00;;;;;;5137136;27;20043;-70
2021/05/05 06:53:51;;;;;;;17.98;3.60;;;7.70;94.80;;;;;;5137227;27;20047;-69
2021/05/05 06:56:17;;;;;;;22.98;3.38;;;7.90;95.00;;;;;;5136939;27;20531;-70
2021/05/05 06:58:43;;;;;;;13.45;3.33;;;8.00;94.60;;;;;;5136589;27;20554;-70
2021/05/05 07:01:09;;;;;;;15.70;3.15;;;8.20;94.70;;;;;;5136831;27;20386;-70
2021/05/05 07:03:35;;;;;;;18.75;3.83;;;8.20;94.70;;;;;;5136528;27;20451;-69
2021/05/05 07:06:02;;;;;;;15.77;3.47;;;8.40;94.30;;;;;;5135054;27;20042;-69
2021/05/05 07:08:27;;;;;;;17.35;3.58;;;8.60;93.70;;;;;;5136671;27;20043;-70
2021/05/05 07:10:53;;;;;;;15.88;3.10;;;8.80;93.90;;;;;;5136328;27;20402;-70
2021/05/05 07:13:20;;;;;;;9.55;3.38;;;8.70;92.80;;;;;;5136419;27;20040;-70
2021/05/05 07:15:46;;;;;;;9.00;2.78;;;8.50;92.60;;;;;;5135993;27;20035;-70
2021/05/05 07:18:11;;;;;;;9.63;3.47;;;8.30;92.30;;;;;;5136331;27;20045;-70
2021/05/05 07:20:37;;;;;;;8.43;2.20;;;8.30;92.10;;;;;;5136315;27;20045;-70
2021/05/05 07:23:02;;;;;;;8.75;2.97;;;8.20;92.00;;;;;;5136526;27;20467;-70
2021/05/05 07:25:28;;;;;;;10.40;2.28;;;8.20;91.90;;;;;;5135776;27;20039;-70
2021/05/05 07:27:54;;;;;;;9.23;2.35;;;8.30;92.20;;;;;;5135902;27;20035;-70
2021/05/05 07:30:20;;;;;;;13.18;3.47;;;8.40;92.10;;;;;;5136220;27;20042;-70
2021/05/05 07:32:47;;;;;;;14.32;2.50;;;8.50;91.60;;;;;;5136006;27;20097;-70
2021/05/05 07:35:15;;;;;;;10.70;2.90;;;8.70;91.70;;;;;;5136010;27;20046;-70
2021/05/05 07:48:07;;;;;;;13.98;2.55;;;8.40;93.10;;;;;;5114904;28;20038;-70
2021/05/05 07:50:33;;;;;;;16.15;3.15;;;8.30;93.30;;;;;;5115288;28;20063;-70
2021/05/05 07:53:00;;;;;;;14.82;4.53;;;8.20;93.10;;;;;;5114992;28;20070;-70
2021/05/05 07:55:26;;;;;;;18.50;4.43;;;8.00;94.10;;;;;;5118764;27;20100;-71
2021/05/05 07:57:52;;;;;;;7.15;2.40;;;8.00;93.50;;;;;;5135510;27;20031;-70
2021/05/05 08:00:18;;;;;;;7.78;2.53;;;8.00;93.70;;;;;;5135386;27;20035;-70
2021/05/05 08:02:44;;;;;;;10.80;2.17;;;8.10;93.70;;;;;;5135083;27;20039;-70
2021/05/05 08:05:10;;;;;;;8.25;2.10;;;8.30;93.40;;;;;;5134917;27;20200;-71
2021/05/05 08:07:36;;;;;;;7.05;1.65;;;8.50;92.70;;;;;;5135188;27;20031;-70
2021/05/05 08:10:04;;;;;;;5.10;1.52;;;8.70;92.50;;;;;;5135092;27;20455;-70
2021/05/05 08:12:30;;;;;;;8.60;2.33;;;8.80;92.00;;;;;;5134957;27;20063;-71
2021/05/05 08:14:55;;;;;;;8.40;1.90;;;8.80;92.70;;;;;;5134478;27;20031;-70
2021/05/05 08:17:21;;;;;;;6.25;2.10;;;8.70;92.30;;;;;;5135349;27;20058;-70
2021/05/05 08:19:47;;;;;;;7.78;1.33;;;8.50;92.00;;;;;;5135182;27;20039;-70
2021/05/05 08:22:13;;;;;;;8.13;2.97;;;8.30;92.70;;;;;;5135445;27;20087;-70
2021/05/05 08:24:39;;;;;;;6.10;1.80;;;8.10;94.00;;;;;;5134839;27;20039;-71
2021/05/05 08:27:05;;;;;;;7.38;1.88;;;8.00;94.80;;;;;;5135144;27;20050;-71
2021/05/05 08:29:32;;;;;;;8.77;1.63;;;8.00;94.80;;;;;;5134993;27;20042;-70
2021/05/05 08:32:00;;;;;;;4.60;1.45;;;8.10;94.80;;;;;;5135189;27;20073;-70
2021/05/05 08:34:27;;;;;;;10.77;2.63;;;8.20;94.40;;;;;;5134742;27;20039;-71
2021/05/05 08:37:00;;;;;;;4.72;1.42;;;8.20;94.20;;;;;;5135304;27;20092;-70
2021/05/05 08:39:26;;;;;;;10.60;1.67;;;8.00;93.70;;;;;;5135103;27;20039;-70
2021/05/05 08:41:52;;;;;;;4.22;1.17;;;7.90;94.10;;;;;;5135219;27;20046;-70
2021/05/05 08:44:19;;;;;;;10.00;2.00;;;7.80;94.40;;;;;;5134503;27;20486;-70
2021/05/05 08:46:46;;;;;;;8.18;1.65;;;7.80;95.10;;;;;;5134667;27;20038;-70
2021/05/05 08:49:14;;;;;;;5.75;1.20;;;7.90;95.20;;;;;;5135165;27;20065;-70
2021/05/05 08:51:39;;;;;;;5.65;1.80;;;7.90;95.10;;;;;;5135092;27;20057;-70
2021/05/05 08:54:07;;;;;;;7.28;1.25;;;8.00;95.40;;;;;;5134441;27;20031;-69
2021/05/05 08:56:35;;;;;;;14.18;2.20;;;8.00;95.30;;;;;;5134125;27;20126;-70
2021/05/05 08:59:04;;;;;;;7.47;1.65;;;8.00;95.40;;;;;;5135035;27;20046;-70
2021/05/05 09:01:31;;;;;;;9.00;2.22;;;8.00;95.10;;;;;;5134644;27;20043;-71
2021/05/05 09:03:57;;;;;;;9.27;1.85;;;8.00;95.90;;;;;;5134917;27;20031;-71
2021/05/05 09:06:45;;;;;;;7.18;2.03;;;8.10;96.00;;;;;;5133836;27;20081;-71
2021/05/05 09:09:28;;;;;;;13.55;1.80;;;8.10;94.70;;;;;;5134066;27;20474;-71
2021/05/05 09:11:54;;;;;;;6.88;1.35;;;8.10;94.80;;;;;;5134835;27;20031;-71
2021/05/05 09:14:20;;;;;;;5.93;1.40;;;8.20;94.20;;;;;;5134128;27;20536;-71
2021/05/05 09:16:45;;;;;;;5.03;1.15;;;8.20;94.30;;;;;;5134405;28;20042;-70
2021/05/05 09:19:11;;;;;;;7.57;1.25;;;8.20;93.80;;;;;;5134211;27;20031;-70
2021/05/05 09:21:42;;;;;;;7.40;1.30;;;8.20;93.80;;;;;;5134183;27;20035;-71
2021/05/05 09:24:28;;;;;;;7.78;1.52;;;8.10;94.10;;;;;;5134593;27;20035;-70
2021/05/05 09:26:59;;;;;;;8.07;1.08;;;8.10;94.60;;;;;;5139022;27;20031;-71
2021/05/05 09:29:45;;;;;;;7.45;1.48;;;7.90;94.30;;;;;;5138285;27;20463;-70
2021/05/05 09:32:13;;;;;;;7.57;1.10;;;7.90;94.60;;;;;;5138235;27;20035;-71
2021/05/05 09:34:39;;;;;;;8.00;1.52;;;8.10;95.10;;;;;;5137930;27;20092;-71
2021/05/05 09:37:11;;;;;;;7.03;1.23;;;8.40;95.10;;;;;;5137048;27;20046;-71
2021/05/05 09:39:39;;;;;;;8.18;1.58;;;8.60;94.30;;;;;;5138930;27;20047;-71
2021/05/05 09:42:27;;;;;;;6.30;1.45;;;8.80;93.70;;;;;;5138201;27;20039;-70
2021/05/05 09:44:55;;;;;;;7.00;1.48;;;8.80;93.30;;;;;;5130783;27;20051;-71
2021/05/05 09:47:21;;;;;;;6.13;1.40;;;8.90;93.90;;;;;;5137879;27;20039;-70
2021/05/05 09:49:46;;;;;;;6.90;2.17;;;9.10;93.90;;;;;;5138605;27;20035;-70
2021/05/05 09:52:19;;;;;;;7.03;1.60;;;9.10;92.60;;;;;;5138439;27;20114;-70
2021/05/05 09:55:01;;;;;;;10.07;1.55;;;9.00;92.80;;;;;;5137514;27;20035;-71
2021/05/05 09:57:29;;;;;;;7.47;1.30;;;8.70;92.30;;;;;;5138213;27;20039;-70
2021/05/05 10:00:10;;;;;;;6.90;1.60;;;8.80;92.80;;;;;;5138230;27;20530;-71
2021/05/05 10:02:49;;;;;;;11.15;3.00;;;9.00;93.10;;;;;;5137881;27;20378;-70
2021/05/05 10:05:21;;;;;;;8.20;2.20;;;9.00;92.80;;;;;;5137680;27;20035;-71
2021/05/05 10:08:04;;;;;;;5.70;2.25;;;9.00;92.50;;;;;;5137809;27;20498;-71
2021/05/05 10:10:33;;;;;;;7.40;2.22;;;8.70;92.70;;;;;;5137445;27;20087;-71
2021/05/05 10:13:01;;;;;;;7.20;1.35;;;8.90;94.30;;;;;;5138223;27;20042;-71
2021/05/05 10:15:30;;;;;;;7.00;1.85;;;9.00;92.90;;;;;;5137296;27;20519;-71
2021/05/05 10:17:57;;;;;;;7.15;1.60;;;9.20;92.90;;;;;;5138127;27;20038;-71
2021/05/05 10:20:28;;;;;;;11.40;2.45;;;9.30;92.50;;;;;;5137659;27;20091;-69
2021/05/05 10:22:56;;;;;;;11.52;2.20;;;9.20;92.30;;;;;;5137557;27;20035;-74
2021/05/05 10:25:22;;;;;;;8.02;2.28;;;8.90;93.00;;;;;;5136151;27;20053;-73
2021/05/05 10:27:49;;;;;;;8.45;2.45;;;8.80;93.00;;;;;;5136575;27;20059;-74
2021/05/05 10:30:18;;;;;;;10.38;1.85;;;8.90;93.70;;;;;;5135924;27;20451;-74
2021/05/05 10:32:46;;;;;;;9.85;2.20;;;9.00;93.50;;;;;;5135779;27;20039;-74
2021/05/05 10:35:17;;;;;;;11.75;2.15;;;9.00;93.50;;;;;;5135618;27;20045;-74
2021/05/05 10:37:48;;;;;;;9.38;2.33;;;9.20;93.30;;;;;;5134894;27;20047;-74
2021/05/05 10:40:26;;;;;;;13.43;2.28;;;9.30;92.10;;;;;;5135722;27;20035;-74
2021/05/05 10:43:06;;;;;;;12.75;2.20;;;9.40;91.80;;;;;;5135011;27;20037;-74
2021/05/05 10:45:33;;;;;;;10.75;2.97;;;9.40;91.60;;;;;;5136707;27;20502;-74
2021/05/05 10:48:10;;;;;;;17.02;3.13;;;9.50;91.60;;;;;;5137369;27;20056;-74
2021/05/05 10:50:49;;;;;;;10.88;2.50;;;9.40;90.70;;;;;;5137050;27;20506;-74
2021/05/05 10:53:15;;;;;;;12.60;3.35;;;8.80;91.40;;;;;;5137056;27;20383;-74
2021/05/05 10:55:44;;;;;;;11.43;2.22;;;8.30;92.30;;;;;;5136631;27;20486;-74
2021/05/05 10:58:13;;;;;;;5.95;2.85;;;8.40;93.90;;;;;;5137033;27;20036;-74
2021/05/05 11:00:43;;;;;;;8.77;2.58;;;8.40;94.40;;;;;;5137184;27;20076;-74
2021/05/05 11:03:10;;;;;;;15.15;3.08;;;8.60;94.50;;;;;;5136909;27;20039;-74
2021/05/05 11:05:38;;;;;;;11.10;3.33;;;8.70;94.30;;;;;;5136518;27;20027;-74
2021/05/05 11:08:27;;;;;;;11.02;2.78;;;8.70;93.70;;;;;;5136168;27;20092;-74
2021/05/05 11:10:55;;;;;;;12.13;2.30;;;8.80;92.50;;;;;;5130716;27;20417;-74
2021/05/05 11:13:22;;;;;;;11.20;2.83;;;8.70;92.50;;;;;;5137005;27;20042;-74
2021/05/05 11:15:47;;;;;;;13.30;2.92;;;8.60;92.40;;;;;;5136109;27;20121;-74
2021/05/05 11:18:35;;;;;;;11.80;2.83;;;8.70;92.90;;;;;;5136380;27;20051;-74
2021/05/05 11:21:02;;;;;;;6.38;1.92;;;8.60;92.40;;;;;;5136600;27;20035;-74
2021/05/05 11:23:33;;;;;;;10.25;2.00;;;8.40;92.80;;;;;;5136282;27;20067;-74
2021/05/05 11:26:19;;;;;;;5.57;1.40;;;7.90;93.30;;;;;;5135962;27;20043;-74
2021/05/05 11:28:55;;;;;;;8.52;1.95;;;7.70;92.80;;;;;;5136213;27;20069;-74
2021/05/05 11:31:41;;;;;;;7.97;1.75;;;7.70;93.50;;;;;;5136044;27;20039;-74
2021/05/05 11:34:07;;;;;;;7.55;1.80;;;7.70;93.60;;;;;;5136010;27;20063;-74
2021/05/05 11:36:33;;;;;;;7.28;2.28;;;8.00;94.30;;;;;;5135889;27;20109;-74
2021/05/05 11:38:59;;;;;;;13.38;2.50;;;8.10;94.00;;;;;;5136321;27;20047;-74
2021/05/05 11:41:27;;;;;;;11.02;3.10;;;8.20;93.10;;;;;;5136469;27;20031;-74
2021/05/05 11:43:52;;;;;;;17.05;3.80;;;8.40;92.60;;;;;;5136274;27;20084;-74
2021/05/05 11:46:22;;;;;;;11.75;4.07;;;8.60;92.70;;;;;;5135948;27;20035;-74
2021/05/05 11:48:47;;;;;;;13.45;3.38;;;8.70;93.80;;;;;;5135252;27;20379;-74
2021/05/05 11:51:25;;;;;;;16.25;3.72;;;8.90;92.90;;;;;;5136111;27;20043;-74
2021/05/05 11:53:51;;;;;;;23.10;4.80;;;9.20;93.10;;;;;;5136044;27;20114;-74
2021/05/05 11:56:23;;;;;;;21.48;4.57;;;9.40;92.40;;;;;;5135712;27;20042;-74
2021/05/05 11:59:01;;;;;;;16.67;4.82;;;9.50;91.70;;;;;;5136183;27;20066;-74
2021/05/05 12:01:28;;;;;;;15.63;3.42;;;9.60;91.00;;;;;;5135548;27;20459;-74
2021/05/05 12:04:14;;;;;;;14.40;3.25;;;9.60;91.30;;;;;;5135932;27;20089;-74
2021/05/05 12:06:51;;;;;;;8.60;2.60;;;9.40;90.10;;;;;;5135155;27;20067;-74
2021/05/05 12:09:38;;;;;;;12.38;2.63;;;8.90;90.70;;;;;;5135154;27;20039;-74
2021/05/05 12:12:15;;;;;;;14.00;3.00;;;8.60;92.00;;;;;;5135458;27;20043;-74
2021/05/05 12:14:50;;;;;;;14.02;3.35;;;8.50;92.50;;;;;;5135068;27;20039;-74
2021/05/05 12:17:28;;;;;;;16.38;3.50;;;8.70;93.10;;;;;;5135027;27;20432;-74
2021/05/05 12:19:59;;;;;;;10.63;3.20;;;8.60;92.00;;;;;;5135727;27;20043;-74
2021/05/05 12:22:26;;;;;;;18.95;3.25;;;8.50;93.60;;;;;;5135195;27;20367;-74
2021/05/05 12:25:10;;;;;;;15.02;3.72;;;8.50;94.10;;;;;;5135269;27;20057;-74
2021/05/05 12:27:38;;;;;;;18.63;3.72;;;8.70;94.10;;;;;;5135397;27;20042;-74
2021/05/05 12:30:07;;;;;;;13.50;2.88;;;8.90;93.50;;;;;;5135092;27;20475;-74
2021/05/05 12:32:46;;;;;;;11.73;2.72;;;9.10;93.60;;;;;;5135452;27;20047;-74
2021/05/05 12:35:20;;;;;;;16.92;4.13;;;9.10;90.80;;;;;;5134626;27;20398;-74
2021/05/05 12:37:46;;;;;;;14.13;3.08;;;9.10;88.30;;;;;;5135148;27;20463;-74
2021/05/05 12:40:13;;;;;;;8.70;2.53;;;9.30;90.30;;;;;;5135258;27;20043;-74
2021/05/05 12:42:39;;;;;;;13.40;2.88;;;9.20;90.40;;;;;;5135418;27;20031;-74
2021/05/05 12:45:14;;;;;;;10.88;2.70;;;9.30;90.60;;;;;;5134466;27;20130;-74
2021/05/05 12:47:41;;;;;;;16.35;2.70;;;9.40;86.60;;;;;;5134759;27;20042;-74
2021/05/05 12:50:09;;;;;;;14.10;3.65;;;9.50;84.90;;;;;;5133641;27;20061;-73
2021/05/05 12:52:37;;;;;;;15.82;3.03;;;9.50;84.60;;;;;;5134488;27;20073;-74
2021/05/05 12:55:23;;;;;;;10.77;3.00;;;9.50;84.40;;;;;;5134289;27;20039;-74
2021/05/05 12:57:59;;;;;;;11.95;3.22;;;9.60;85.80;;;;;;5134619;27;20042;-74
2021/05/05 13:00:27;;;;;;;16.00;4.20;;;9.60;85.20;;;;;;5134483;27;20035;-74
2021/05/05 13:03:08;;;;;;;20.30;3.95;;;9.70;84.20;;;;;;5134779;27;20100;-74
2021/05/05 13:06:03;;;;;;;13.43;3.45;;;9.90;83.80;;;;;;5134498;27;20460;-73